sensor_id;sensor_type;location;lat;lon;timestamp;P1;durP1;ratioP1;P2;durP2;ratioP2
51368;SDS011;37459;51.416;5.502;2022-11-15T00:02:06;33.55;;;20.88;;
51368;SDS011;37459;51.416;5.502;2022-11-15T00:04:34;33.35;;;20.30;;
51368;SDS011;37459;51.416;5.502;2022-11-15T00:07:00;30.90;;;20.00;;
51368;SDS011;37459;51.416;5.502;2022-11-15T00:09:27;29.80;;;18.70;;
51368;SDS011;37459;51.416;5.502;2022-11-15T00:11:53;31.55;;;19.23;;
51368;SDS011;37459;51.416;5.502;2022-11-15T00:14:20;28.20;;;18.75;;
51368;SDS011;37459;51.416;5.502;2022-11-15T00:16:46;32.72;;;19.88;;
51368;SDS011;37459;51.416;5.502;2022-11-15T00:19:13;32.97;;;19.95;;
51368;SDS011;37459;51.416;5.502;2022-11-15T00:21:41;34.30;;;20.77;;
51368;SDS011;37459;51.416;5.502;2022-11-15T00:24:07;30.30;;;20.10;;
51368;SDS011;37459;51.416;5.502;2022-11-15T00:26:34;31.73;;;20.75;;
51368;SDS011;37459;51.416;5.502;2022-11-15T00:29:01;31.98;;;19.75;;
51368;SDS011;37459;51.416;5.502;2022-11-15T00:31:27;28.92;;;18.92;;
51368;SDS011;37459;51.416;5.502;2022-11-15T00:33:54;31.42;;;20.17;;
51368;SDS011;37459;51.416;5.502;2022-11-15T00:36:20;27.38;;;19.08;;
51368;SDS011;37459;51.416;5.502;2022-11-15T00:38:48;29.55;;;20.00;;
51368;SDS011;37459;51.416;5.502;2022-11-15T00:41:15;30.52;;;19.85;;
51368;SDS011;37459;51.416;5.502;2022-11-15T00:43:41;29.60;;;19.67;;
51368;SDS011;37459;51.416;5.502;2022-11-15T00:46:08;28.23;;;19.15;;
51368;SDS011;37459;51.416;5.502;2022-11-15T00:48:35;29.42;;;18.70;;
51368;SDS011;37459;51.416;5.502;2022-11-15T00:51:01;31.33;;;19.23;;
51368;SDS011;37459;51.416;5.502;2022-11-15T00:53:28;29.00;;;20.15;;
51368;SDS011;37459;51.416;5.502;2022-11-15T00:55:55;29.80;;;19.88;;
51368;SDS011;37459;51.416;5.502;2022-11-15T00:58:22;26.83;;;18.27;;
51368;SDS011;37459;51.416;5.502;2022-11-15T01:00:49;30.88;;;19.58;;
51368;SDS011;37459;51.416;5.502;2022-11-15T01:03:15;26.67;;;18.40;;
51368;SDS011;37459;51.416;5.502;2022-11-15T01:05:42;32.40;;;20.63;;
51368;SDS011;37459;51.416;5.502;2022-11-15T01:08:11;26.05;;;17.92;;
51368;SDS011;37459;51.416;5.502;2022-11-15T01:10:38;30.20;;;19.40;;
51368;SDS011;37459;51.416;5.502;2022-11-15T01:13:06;29.90;;;19.55;;
51368;SDS011;37459;51.416;5.502;2022-11-15T01:15:32;29.13;;;18.83;;
51368;SDS011;37459;51.416;5.502;2022-11-15T01:17:59;27.92;;;19.17;;
51368;SDS011;37459;51.416;5.502;2022-11-15T01:20:26;28.80;;;18.90;;
51368;SDS011;37459;51.416;5.502;2022-11-15T01:22:52;28.55;;;19.42;;
51368;SDS011;37459;51.416;5.502;2022-11-15T01:25:19;34.88;;;19.23;;
51368;SDS011;37459;51.416;5.502;2022-11-15T01:27:45;29.95;;;19.73;;
51368;SDS011;37459;51.416;5.502;2022-11-15T01:30:13;30.45;;;19.08;;
51368;SDS011;37459;51.416;5.502;2022-11-15T01:32:40;29.05;;;18.70;;
51368;SDS011;37459;51.416;5.502;2022-11-15T01:35:07;27.95;;;18.70;;
51368;SDS011;37459;51.416;5.502;2022-11-15T01:37:34;26.92;;;18.40;;
51368;SDS011;37459;51.416;5.502;2022-11-15T01:40:00;26.58;;;17.75;;
51368;SDS011;37459;51.416;5.502;2022-11-15T01:42:27;26.80;;;18.15;;
51368;SDS011;37459;51.416;5.502;2022-11-15T01:44:53;29.95;;;18.90;;
51368;SDS011;37459;51.416;5.502;2022-11-15T01:47:22;28.38;;;18.85;;
51368;SDS011;37459;51.416;5.502;2022-11-15T01:49:54;27.33;;;17.85;;
51368;SDS011;37459;51.416;5.502;2022-11-15T01:52:24;30.88;;;19.08;;
51368;SDS011;37459;51.416;5.502;2022-11-15T01:54:54;26.95;;;17.75;;
51368;SDS011;37459;51.416;5.502;2022-11-15T01:57:24;27.38;;;18.55;;
51368;SDS011;37459;51.416;5.502;2022-11-15T01:59:50;30.48;;;18.15;;
51368;SDS011;37459;51.416;5.502;2022-11-15T02:02:17;28.63;;;18.15;;
51368;SDS011;37459;51.416;5.502;2022-11-15T02:04:46;28.45;;;18.33;;
51368;SDS011;37459;51.416;5.502;2022-11-15T02:07:13;25.67;;;18.13;;
51368;SDS011;37459;51.416;5.502;2022-11-15T02:09:42;28.65;;;18.98;;
51368;SDS011;37459;51.416;5.502;2022-11-15T02:12:10;28.42;;;19.92;;
51368;SDS011;37459;51.416;5.502;2022-11-15T02:14:39;29.08;;;19.40;;
51368;SDS011;37459;51.416;5.502;2022-11-15T02:17:11;35.90;;;22.27;;
51368;SDS011;37459;51.416;5.502;2022-11-15T02:19:57;32.83;;;21.75;;
51368;SDS011;37459;51.416;5.502;2022-11-15T02:22:51;32.88;;;20.30;;
51368;SDS011;37459;51.416;5.502;2022-11-15T02:25:38;32.67;;;20.58;;
51368;SDS011;37459;51.416;5.502;2022-11-15T02:28:20;28.42;;;20.67;;
51368;SDS011;37459;51.416;5.502;2022-11-15T02:31:01;34.47;;;22.25;;
51368;SDS011;37459;51.416;5.502;2022-11-15T02:33:40;35.08;;;21.60;;
51368;SDS011;37459;51.416;5.502;2022-11-15T02:36:13;35.38;;;22.23;;
51368;SDS011;37459;51.416;5.502;2022-11-15T02:38:46;34.38;;;21.15;;
51368;SDS011;37459;51.416;5.502;2022-11-15T02:41:22;31.88;;;21.17;;
51368;SDS011;37459;51.416;5.502;2022-11-15T02:43:56;32.83;;;22.00;;
51368;SDS011;37459;51.416;5.502;2022-11-15T02:46:31;34.70;;;21.23;;
51368;SDS011;37459;51.416;5.502;2022-11-15T02:49:19;30.35;;;20.02;;
51368;SDS011;37459;51.416;5.502;2022-11-15T02:51:46;31.75;;;21.02;;
51368;SDS011;37459;51.416;5.502;2022-11-15T02:54:15;34.85;;;22.02;;
51368;SDS011;37459;51.416;5.502;2022-11-15T02:56:46;32.22;;;22.73;;
51368;SDS011;37459;51.416;5.502;2022-11-15T02:59:15;32.25;;;22.35;;
51368;SDS011;37459;51.416;5.502;2022-11-15T03:01:59;33.80;;;21.23;;
51368;SDS011;37459;51.416;5.502;2022-11-15T03:04:37;34.53;;;22.73;;
51368;SDS011;37459;51.416;5.502;2022-11-15T03:07:10;35.28;;;22.52;;
51368;SDS011;37459;51.416;5.502;2022-11-15T03:09:42;33.60;;;22.50;;
51368;SDS011;37459;51.416;5.502;2022-11-15T03:12:18;32.42;;;21.98;;
51368;SDS011;37459;51.416;5.502;2022-11-15T03:14:50;34.22;;;20.90;;
51368;SDS011;37459;51.416;5.502;2022-11-15T03:17:25;33.80;;;23.42;;
51368;SDS011;37459;51.416;5.502;2022-11-15T03:19:55;32.40;;;22.25;;
51368;SDS011;37459;51.416;5.502;2022-11-15T03:22:24;32.40;;;21.88;;
51368;SDS011;37459;51.416;5.502;2022-11-15T03:24:54;36.20;;;23.80;;
51368;SDS011;37459;51.416;5.502;2022-11-15T03:27:25;34.42;;;22.65;;
51368;SDS011;37459;51.416;5.502;2022-11-15T03:29:59;36.22;;;22.33;;
51368;SDS011;37459;51.416;5.502;2022-11-15T03:32:30;39.70;;;24.35;;
51368;SDS011;37459;51.416;5.502;2022-11-15T03:35:02;35.50;;;22.15;;
51368;SDS011;37459;51.416;5.502;2022-11-15T03:37:34;32.72;;;21.52;;
51368;SDS011;37459;51.416;5.502;2022-11-15T03:40:04;34.90;;;21.05;;
51368;SDS011;37459;51.416;5.502;2022-11-15T03:42:32;35.05;;;22.02;;
51368;SDS011;37459;51.416;5.502;2022-11-15T03:45:07;30.83;;;20.00;;
51368;SDS011;37459;51.416;5.502;2022-11-15T03:47:41;31.73;;;21.25;;
51368;SDS011;37459;51.416;5.502;2022-11-15T03:50:12;28.67;;;20.08;;
51368;SDS011;37459;51.416;5.502;2022-11-15T03:52:41;32.28;;;21.60;;
51368;SDS011;37459;51.416;5.502;2022-11-15T03:55:10;28.15;;;20.40;;
51368;SDS011;37459;51.416;5.502;2022-11-15T03:57:39;34.70;;;20.80;;
51368;SDS011;37459;51.416;5.502;2022-11-15T04:00:06;32.33;;;21.63;;
51368;SDS011;37459;51.416;5.502;2022-11-15T04:02:33;32.75;;;20.33;;
51368;SDS011;37459;51.416;5.502;2022-11-15T04:05:02;28.25;;;19.95;;
51368;SDS011;37459;51.416;5.502;2022-11-15T04:07:28;30.90;;;21.40;;
51368;SDS011;37459;51.416;5.502;2022-11-15T04:09:55;35.65;;;21.40;;
51368;SDS011;37459;51.416;5.502;2022-11-15T04:12:31;30.55;;;20.48;;
51368;SDS011;37459;51.416;5.502;2022-11-15T04:14:59;30.45;;;20.77;;
51368;SDS011;37459;51.416;5.502;2022-11-15T04:17:33;29.35;;;19.70;;
51368;SDS011;37459;51.416;5.502;2022-11-15T04:20:01;27.73;;;19.85;;
51368;SDS011;37459;51.416;5.502;2022-11-15T04:22:46;30.25;;;20.10;;
51368;SDS011;37459;51.416;5.502;2022-11-15T04:25:30;30.48;;;19.80;;
51368;SDS011;37459;51.416;5.502;2022-11-15T04:27:56;33.13;;;21.10;;
51368;SDS011;37459;51.416;5.502;2022-11-15T04:30:23;33.80;;;22.02;;
51368;SDS011;37459;51.416;5.502;2022-11-15T04:32:49;33.83;;;21.77;;
51368;SDS011;37459;51.416;5.502;2022-11-15T04:35:17;33.38;;;21.80;;
51368;SDS011;37459;51.416;5.502;2022-11-15T04:37:43;34.05;;;22.10;;
51368;SDS011;37459;51.416;5.502;2022-11-15T04:40:10;31.98;;;21.77;;
51368;SDS011;37459;51.416;5.502;2022-11-15T04:42:37;33.92;;;20.85;;
51368;SDS011;37459;51.416;5.502;2022-11-15T04:45:03;32.83;;;22.35;;
51368;SDS011;37459;51.416;5.502;2022-11-15T04:47:30;32.92;;;21.90;;
51368;SDS011;37459;51.416;5.502;2022-11-15T04:49:56;32.30;;;21.63;;
51368;SDS011;37459;51.416;5.502;2022-11-15T04:52:24;31.23;;;20.33;;
51368;SDS011;37459;51.416;5.502;2022-11-15T04:54:51;33.70;;;20.83;;
51368;SDS011;37459;51.416;5.502;2022-11-15T04:57:17;30.35;;;20.73;;
51368;SDS011;37459;51.416;5.502;2022-11-15T04:59:44;33.25;;;21.77;;
51368;SDS011;37459;51.416;5.502;2022-11-15T05:02:11;33.25;;;21.02;;
51368;SDS011;37459;51.416;5.502;2022-11-15T05:04:38;35.13;;;20.90;;
51368;SDS011;37459;51.416;5.502;2022-11-15T05:07:04;30.42;;;20.80;;
51368;SDS011;37459;51.416;5.502;2022-11-15T05:09:32;30.98;;;21.05;;
51368;SDS011;37459;51.416;5.502;2022-11-15T05:11:58;30.00;;;20.83;;
51368;SDS011;37459;51.416;5.502;2022-11-15T05:14:25;34.83;;;22.20;;
51368;SDS011;37459;51.416;5.502;2022-11-15T05:16:51;32.03;;;21.20;;
51368;SDS011;37459;51.416;5.502;2022-11-15T05:19:18;34.10;;;22.38;;
51368;SDS011;37459;51.416;5.502;2022-11-15T05:21:44;32.95;;;20.45;;
51368;SDS011;37459;51.416;5.502;2022-11-15T05:24:11;34.17;;;21.33;;
51368;SDS011;37459;51.416;5.502;2022-11-15T05:26:39;30.70;;;19.58;;
51368;SDS011;37459;51.416;5.502;2022-11-15T05:29:08;33.75;;;21.73;;
51368;SDS011;37459;51.416;5.502;2022-11-15T05:31:36;31.73;;;20.30;;
51368;SDS011;37459;51.416;5.502;2022-11-15T05:34:06;32.03;;;21.25;;
51368;SDS011;37459;51.416;5.502;2022-11-15T05:36:33;30.38;;;19.77;;
51368;SDS011;37459;51.416;5.502;2022-11-15T05:39:02;25.90;;;18.92;;
51368;SDS011;37459;51.416;5.502;2022-11-15T05:41:31;27.48;;;19.17;;
51368;SDS011;37459;51.416;5.502;2022-11-15T05:44:01;30.05;;;19.85;;
51368;SDS011;37459;51.416;5.502;2022-11-15T05:46:31;27.38;;;18.65;;
51368;SDS011;37459;51.416;5.502;2022-11-15T05:49:00;29.65;;;19.95;;
51368;SDS011;37459;51.416;5.502;2022-11-15T05:51:27;28.02;;;19.88;;
51368;SDS011;37459;51.416;5.502;2022-11-15T05:53:55;30.80;;;20.35;;
51368;SDS011;37459;51.416;5.502;2022-11-15T05:56:24;31.10;;;20.00;;
51368;SDS011;37459;51.416;5.502;2022-11-15T05:58:51;32.85;;;20.67;;
51368;SDS011;37459;51.416;5.502;2022-11-15T06:01:20;27.67;;;18.98;;
51368;SDS011;37459;51.416;5.502;2022-11-15T06:03:47;30.20;;;21.40;;
51368;SDS011;37459;51.416;5.502;2022-11-15T06:06:14;31.85;;;20.95;;
51368;SDS011;37459;51.416;5.502;2022-11-15T06:08:41;35.80;;;21.80;;
51368;SDS011;37459;51.416;5.502;2022-11-15T06:11:07;33.45;;;22.70;;
51368;SDS011;37459;51.416;5.502;2022-11-15T06:13:34;34.15;;;21.98;;
51368;SDS011;37459;51.416;5.502;2022-11-15T06:16:01;34.05;;;21.98;;
51368;SDS011;37459;51.416;5.502;2022-11-15T06:18:31;37.80;;;23.30;;
51368;SDS011;37459;51.416;5.502;2022-11-15T06:20:58;34.53;;;22.58;;
51368;SDS011;37459;51.416;5.502;2022-11-15T06:23:24;33.47;;;22.70;;
51368;SDS011;37459;51.416;5.502;2022-11-15T06:25:51;34.85;;;21.35;;
51368;SDS011;37459;51.416;5.502;2022-11-15T06:28:17;29.38;;;20.05;;
51368;SDS011;37459;51.416;5.502;2022-11-15T06:30:44;32.72;;;21.08;;
51368;SDS011;37459;51.416;5.502;2022-11-15T06:33:11;31.98;;;22.23;;
51368;SDS011;37459;51.416;5.502;2022-11-15T06:35:39;32.47;;;19.95;;
51368;SDS011;37459;51.416;5.502;2022-11-15T06:38:06;30.83;;;21.10;;
51368;SDS011;37459;51.416;5.502;2022-11-15T06:40:35;49.67;;;20.58;;
51368;SDS011;37459;51.416;5.502;2022-11-15T06:43:02;32.30;;;20.10;;
51368;SDS011;37459;51.416;5.502;2022-11-15T06:45:29;30.73;;;18.85;;
51368;SDS011;37459;51.416;5.502;2022-11-15T06:47:56;27.27;;;18.48;;
51368;SDS011;37459;51.416;5.502;2022-11-15T06:50:23;27.20;;;17.70;;
51368;SDS011;37459;51.416;5.502;2022-11-15T06:52:51;22.05;;;16.40;;
51368;SDS011;37459;51.416;5.502;2022-11-15T06:55:19;25.23;;;17.40;;
51368;SDS011;37459;51.416;5.502;2022-11-15T06:57:46;28.92;;;17.80;;
51368;SDS011;37459;51.416;5.502;2022-11-15T07:00:14;24.10;;;17.20;;
51368;SDS011;37459;51.416;5.502;2022-11-15T07:02:41;22.92;;;16.35;;
51368;SDS011;37459;51.416;5.502;2022-11-15T07:05:08;25.45;;;16.67;;
51368;SDS011;37459;51.416;5.502;2022-11-15T07:07:34;26.35;;;17.25;;
51368;SDS011;37459;51.416;5.502;2022-11-15T07:10:03;26.15;;;16.13;;
51368;SDS011;37459;51.416;5.502;2022-11-15T07:12:30;23.17;;;15.45;;
51368;SDS011;37459;51.416;5.502;2022-11-15T07:14:56;25.63;;;16.70;;
51368;SDS011;37459;51.416;5.502;2022-11-15T07:17:23;22.80;;;15.50;;
51368;SDS011;37459;51.416;5.502;2022-11-15T07:19:50;24.30;;;16.02;;
51368;SDS011;37459;51.416;5.502;2022-11-15T07:22:16;20.92;;;15.38;;
51368;SDS011;37459;51.416;5.502;2022-11-15T07:24:43;24.08;;;14.60;;
51368;SDS011;37459;51.416;5.502;2022-11-15T07:27:10;24.65;;;16.27;;
51368;SDS011;37459;51.416;5.502;2022-11-15T07:29:37;19.92;;;14.60;;
51368;SDS011;37459;51.416;5.502;2022-11-15T07:32:03;20.98;;;13.95;;
51368;SDS011;37459;51.416;5.502;2022-11-15T07:34:30;23.35;;;14.75;;
51368;SDS011;37459;51.416;5.502;2022-11-15T07:36:56;22.60;;;14.25;;
51368;SDS011;37459;51.416;5.502;2022-11-15T07:39:23;24.50;;;14.73;;
51368;SDS011;37459;51.416;5.502;2022-11-15T07:41:49;24.02;;;14.32;;
51368;SDS011;37459;51.416;5.502;2022-11-15T07:44:38;19.60;;;14.07;;
51368;SDS011;37459;51.416;5.502;2022-11-15T07:47:05;20.75;;;14.13;;
51368;SDS011;37459;51.416;5.502;2022-11-15T07:49:31;22.73;;;14.23;;
51368;SDS011;37459;51.416;5.502;2022-11-15T07:51:58;19.50;;;13.30;;
51368;SDS011;37459;51.416;5.502;2022-11-15T07:54:24;20.13;;;13.45;;
51368;SDS011;37459;51.416;5.502;2022-11-15T07:56:51;19.55;;;13.00;;
51368;SDS011;37459;51.416;5.502;2022-11-15T07:59:17;21.08;;;12.73;;
51368;SDS011;37459;51.416;5.502;2022-11-15T08:01:45;17.20;;;12.38;;
51368;SDS011;37459;51.416;5.502;2022-11-15T08:04:12;20.48;;;12.88;;
51368;SDS011;37459;51.416;5.502;2022-11-15T08:06:39;18.83;;;12.80;;
51368;SDS011;37459;51.416;5.502;2022-11-15T08:09:05;19.40;;;13.10;;
51368;SDS011;37459;51.416;5.502;2022-11-15T08:11:32;17.63;;;12.15;;
51368;SDS011;37459;51.416;5.502;2022-11-15T08:13:58;19.30;;;12.50;;
51368;SDS011;37459;51.416;5.502;2022-11-15T08:16:25;18.80;;;11.98;;
51368;SDS011;37459;51.416;5.502;2022-11-15T08:18:53;16.65;;;11.73;;
51368;SDS011;37459;51.416;5.502;2022-11-15T08:21:20;19.60;;;12.05;;
51368;SDS011;37459;51.416;5.502;2022-11-15T08:23:47;15.63;;;10.77;;
51368;SDS011;37459;51.416;5.502;2022-11-15T08:26:13;17.73;;;11.10;;
51368;SDS011;37459;51.416;5.502;2022-11-15T08:28:41;15.23;;;10.63;;
51368;SDS011;37459;51.416;5.502;2022-11-15T08:31:11;17.58;;;11.13;;
51368;SDS011;37459;51.416;5.502;2022-11-15T08:33:40;14.52;;;10.32;;
51368;SDS011;37459;51.416;5.502;2022-11-15T08:36:10;13.95;;;9.90;;
51368;SDS011;37459;51.416;5.502;2022-11-15T08:38:39;13.82;;;8.98;;
51368;SDS011;37459;51.416;5.502;2022-11-15T08:41:05;15.50;;;9.25;;
51368;SDS011;37459;51.416;5.502;2022-11-15T08:43:32;12.90;;;8.73;;
51368;SDS011;37459;51.416;5.502;2022-11-15T08:45:59;22.33;;;8.60;;
51368;SDS011;37459;51.416;5.502;2022-11-15T08:48:25;14.15;;;7.72;;
51368;SDS011;37459;51.416;5.502;2022-11-15T08:50:53;11.52;;;7.85;;
51368;SDS011;37459;51.416;5.502;2022-11-15T08:53:21;11.48;;;7.38;;
51368;SDS011;37459;51.416;5.502;2022-11-15T08:55:48;10.40;;;6.80;;
51368;SDS011;37459;51.416;5.502;2022-11-15T08:58:14;11.98;;;7.45;;
51368;SDS011;37459;51.416;5.502;2022-11-15T09:00:41;10.15;;;7.10;;
51368;SDS011;37459;51.416;5.502;2022-11-15T09:03:07;11.45;;;7.20;;
51368;SDS011;37459;51.416;5.502;2022-11-15T09:05:35;9.60;;;7.10;;
51368;SDS011;37459;51.416;5.502;2022-11-15T09:08:02;11.68;;;6.82;;
51368;SDS011;37459;51.416;5.502;2022-11-15T09:10:31;11.10;;;6.40;;
51368;SDS011;37459;51.416;5.502;2022-11-15T09:12:57;9.20;;;6.20;;
51368;SDS011;37459;51.416;5.502;2022-11-15T09:15:24;8.38;;;6.15;;
51368;SDS011;37459;51.416;5.502;2022-11-15T09:17:50;10.27;;;6.57;;
51368;SDS011;37459;51.416;5.502;2022-11-15T09:20:17;11.45;;;6.50;;
51368;SDS011;37459;51.416;5.502;2022-11-15T09:22:43;12.63;;;7.15;;
51368;SDS011;37459;51.416;5.502;2022-11-15T09:25:10;8.70;;;6.25;;
51368;SDS011;37459;51.416;5.502;2022-11-15T09:27:37;10.25;;;5.80;;
51368;SDS011;37459;51.416;5.502;2022-11-15T09:30:04;8.38;;;5.60;;
51368;SDS011;37459;51.416;5.502;2022-11-15T09:32:31;8.02;;;4.93;;
51368;SDS011;37459;51.416;5.502;2022-11-15T09:34:58;9.25;;;4.90;;
51368;SDS011;37459;51.416;5.502;2022-11-15T09:37:24;8.52;;;4.15;;
51368;SDS011;37459;51.416;5.502;2022-11-15T09:39:51;6.25;;;3.30;;
51368;SDS011;37459;51.416;5.502;2022-11-15T09:42:23;6.13;;;3.10;;
51368;SDS011;37459;51.416;5.502;2022-11-15T09:45:07;6.22;;;2.47;;
51368;SDS011;37459;51.416;5.502;2022-11-15T09:50:41;3.83;;;2.10;;
51368;SDS011;37459;51.416;5.502;2022-11-15T09:53:12;5.28;;;2.00;;
51368;SDS011;37459;51.416;5.502;2022-11-15T09:55:44;8.90;;;2.00;;
51368;SDS011;37459;51.416;5.502;2022-11-15T09:58:18;4.07;;;1.83;;
51368;SDS011;37459;51.416;5.502;2022-11-15T10:00:52;4.50;;;1.70;;
51368;SDS011;37459;51.416;5.502;2022-11-15T10:03:22;5.22;;;1.85;;
51368;SDS011;37459;51.416;5.502;2022-11-15T10:05:54;8.50;;;1.80;;
51368;SDS011;37459;51.416;5.502;2022-11-15T10:08:30;5.25;;;1.80;;
51368;SDS011;37459;51.416;5.502;2022-11-15T10:11:02;6.85;;;1.70;;
51368;SDS011;37459;51.416;5.502;2022-11-15T10:13:32;7.53;;;1.80;;
51368;SDS011;37459;51.416;5.502;2022-11-15T10:16:04;4.93;;;1.67;;
51368;SDS011;37459;51.416;5.502;2022-11-15T10:18:41;4.68;;;1.70;;
51368;SDS011;37459;51.416;5.502;2022-11-15T10:21:19;3.88;;;1.35;;
51368;SDS011;37459;51.416;5.502;2022-11-15T10:23:48;6.97;;;1.52;;
51368;SDS011;37459;51.416;5.502;2022-11-15T10:26:15;3.65;;;1.48;;
51368;SDS011;37459;51.416;5.502;2022-11-15T10:28:43;3.55;;;1.48;;
51368;SDS011;37459;51.416;5.502;2022-11-15T10:31:22;3.20;;;1.55;;
51368;SDS011;37459;51.416;5.502;2022-11-15T10:33:49;8.50;;;2.35;;
51368;SDS011;37459;51.416;5.502;2022-11-15T10:36:19;7.20;;;1.70;;
51368;SDS011;37459;51.416;5.502;2022-11-15T10:38:52;4.63;;;1.45;;
51368;SDS011;37459;51.416;5.502;2022-11-15T10:41:30;7.10;;;1.90;;
51368;SDS011;37459;51.416;5.502;2022-11-15T10:44:11;4.68;;;1.40;;
51368;SDS011;37459;51.416;5.502;2022-11-15T10:46:46;4.43;;;1.55;;
51368;SDS011;37459;51.416;5.502;2022-11-15T10:49:16;4.80;;;1.63;;
51368;SDS011;37459;51.416;5.502;2022-11-15T10:51:45;7.10;;;2.08;;
51368;SDS011;37459;51.416;5.502;2022-11-15T10:54:14;4.82;;;1.60;;
51368;SDS011;37459;51.416;5.502;2022-11-15T10:56:48;5.78;;;1.52;;
51368;SDS011;37459;51.416;5.502;2022-11-15T10:59:18;4.03;;;1.42;;
51368;SDS011;37459;51.416;5.502;2022-11-15T11:01:51;4.80;;;1.73;;
51368;SDS011;37459;51.416;5.502;2022-11-15T11:04:17;4.38;;;1.58;;
51368;SDS011;37459;51.416;5.502;2022-11-15T11:06:48;5.35;;;1.50;;
51368;SDS011;37459;51.416;5.502;2022-11-15T11:09:27;5.95;;;1.50;;
51368;SDS011;37459;51.416;5.502;2022-11-15T11:11:57;3.42;;;1.67;;
51368;SDS011;37459;51.416;5.502;2022-11-15T11:14:25;4.75;;;1.67;;
51368;SDS011;37459;51.416;5.502;2022-11-15T11:16:55;4.88;;;1.50;;
51368;SDS011;37459;51.416;5.502;2022-11-15T11:22:05;5.60;;;1.55;;
51368;SDS011;37459;51.416;5.502;2022-11-15T11:24:40;4.40;;;1.27;;
51368;SDS011;37459;51.416;5.502;2022-11-15T11:27:17;4.18;;;1.30;;
51368;SDS011;37459;51.416;5.502;2022-11-15T11:29:56;5.95;;;1.40;;
51368;SDS011;37459;51.416;5.502;2022-11-15T11:32:38;5.43;;;1.60;;
51368;SDS011;37459;51.416;5.502;2022-11-15T11:35:17;6.35;;;1.45;;
51368;SDS011;37459;51.416;5.502;2022-11-15T11:37:49;6.53;;;1.70;;
51368;SDS011;37459;51.416;5.502;2022-11-15T11:40:20;4.30;;;1.40;;
51368;SDS011;37459;51.416;5.502;2022-11-15T11:42:55;3.78;;;1.48;;
51368;SDS011;37459;51.416;5.502;2022-11-15T11:45:36;4.20;;;1.50;;
51368;SDS011;37459;51.416;5.502;2022-11-15T11:48:18;4.07;;;1.45;;
51368;SDS011;37459;51.416;5.502;2022-11-15T11:50:56;5.93;;;1.60;;
51368;SDS011;37459;51.416;5.502;2022-11-15T11:53:31;5.18;;;1.50;;
51368;SDS011;37459;51.416;5.502;2022-11-15T11:56:08;6.30;;;1.75;;
51368;SDS011;37459;51.416;5.502;2022-11-15T11:58:41;5.82;;;1.60;;
51368;SDS011;37459;51.416;5.502;2022-11-15T12:01:12;3.88;;;1.50;;
51368;SDS011;37459;51.416;5.502;2022-11-15T12:03:45;3.40;;;1.40;;
51368;SDS011;37459;51.416;5.502;2022-11-15T12:06:17;3.70;;;1.30;;
51368;SDS011;37459;51.416;5.502;2022-11-15T12:08:52;5.53;;;1.30;;
51368;SDS011;37459;51.416;5.502;2022-11-15T12:11:27;6.05;;;1.50;;
51368;SDS011;37459;51.416;5.502;2022-11-15T12:14:02;4.15;;;1.23;;
51368;SDS011;37459;51.416;5.502;2022-11-15T12:16:35;4.18;;;1.30;;
51368;SDS011;37459;51.416;5.502;2022-11-15T12:19:07;6.07;;;1.30;;
51368;SDS011;37459;51.416;5.502;2022-11-15T12:21:35;3.13;;;1.10;;
51368;SDS011;37459;51.416;5.502;2022-11-15T12:24:12;6.18;;;1.20;;
51368;SDS011;37459;51.416;5.502;2022-11-15T12:26:45;4.60;;;1.08;;
51368;SDS011;37459;51.416;5.502;2022-11-15T12:29:16;5.28;;;1.50;;
51368;SDS011;37459;51.416;5.502;2022-11-15T12:31:50;10.18;;;1.65;;
51368;SDS011;37459;51.416;5.502;2022-11-15T12:34:36;4.25;;;1.27;;
51368;SDS011;37459;51.416;5.502;2022-11-15T12:40:24;4.05;;;1.05;;
51368;SDS011;37459;51.416;5.502;2022-11-15T12:42:59;9.07;;;1.30;;
51368;SDS011;37459;51.416;5.502;2022-11-15T12:45:28;4.32;;;1.20;;
51368;SDS011;37459;51.416;5.502;2022-11-15T12:48:20;6.00;;;1.20;;
51368;SDS011;37459;51.416;5.502;2022-11-15T12:51:16;3.85;;;1.20;;
51368;SDS011;37459;51.416;5.502;2022-11-15T12:53:43;4.30;;;1.00;;
51368;SDS011;37459;51.416;5.502;2022-11-15T12:56:17;4.65;;;1.00;;
51368;SDS011;37459;51.416;5.502;2022-11-15T12:58:47;5.38;;;1.30;;
51368;SDS011;37459;51.416;5.502;2022-11-15T13:04:23;5.32;;;1.20;;
51368;SDS011;37459;51.416;5.502;2022-11-15T13:06:54;4.30;;;1.23;;
51368;SDS011;37459;51.416;5.502;2022-11-15T13:18:34;8.55;;;2.80;;
51368;SDS011;37459;51.416;5.502;2022-11-15T13:21:03;5.30;;;1.73;;
51368;SDS011;37459;51.416;5.502;2022-11-15T13:23:54;4.35;;;1.60;;
51368;SDS011;37459;51.416;5.502;2022-11-15T13:26:21;9.82;;;2.30;;
51368;SDS011;37459;51.416;5.502;2022-11-15T13:28:49;8.48;;;2.33;;
51368;SDS011;37459;51.416;5.502;2022-11-15T13:31:22;7.38;;;1.70;;
51368;SDS011;37459;51.416;5.502;2022-11-15T13:33:55;6.50;;;1.50;;
51368;SDS011;37459;51.416;5.502;2022-11-15T13:36:24;3.88;;;1.20;;
51368;SDS011;37459;51.416;5.502;2022-11-15T13:38:58;4.70;;;1.27;;
51368;SDS011;37459;51.416;5.502;2022-11-15T13:41:26;9.93;;;2.10;;
51368;SDS011;37459;51.416;5.502;2022-11-15T13:43:54;22.15;;;2.88;;
51368;SDS011;37459;51.416;5.502;2022-11-15T13:46:22;8.00;;;1.40;;
51368;SDS011;37459;51.416;5.502;2022-11-15T13:48:54;6.80;;;2.00;;
51368;SDS011;37459;51.416;5.502;2022-11-15T13:51:31;12.13;;;3.15;;
51368;SDS011;37459;51.416;5.502;2022-11-15T13:54:09;9.88;;;2.95;;
51368;SDS011;37459;51.416;5.502;2022-11-15T13:56:42;6.72;;;2.40;;
51368;SDS011;37459;51.416;5.502;2022-11-15T13:59:14;6.10;;;2.90;;
51368;SDS011;37459;51.416;5.502;2022-11-15T14:01:50;6.72;;;2.08;;
51368;SDS011;37459;51.416;5.502;2022-11-15T14:04:18;5.53;;;1.30;;
51368;SDS011;37459;51.416;5.502;2022-11-15T14:06:46;6.18;;;1.48;;
51368;SDS011;37459;51.416;5.502;2022-11-15T14:12:02;3.58;;;1.02;;
51368;SDS011;37459;51.416;5.502;2022-11-15T14:14:48;5.30;;;0.98;;
51368;SDS011;37459;51.416;5.502;2022-11-15T14:17:18;6.03;;;1.10;;
51368;SDS011;37459;51.416;5.502;2022-11-15T14:19:48;6.75;;;1.23;;
51368;SDS011;37459;51.416;5.502;2022-11-15T14:22:18;4.13;;;1.10;;
51368;SDS011;37459;51.416;5.502;2022-11-15T14:27:33;5.78;;;0.93;;
51368;SDS011;37459;51.416;5.502;2022-11-15T14:30:00;8.95;;;1.20;;
51368;SDS011;37459;51.416;5.502;2022-11-15T14:32:27;6.38;;;1.25;;
51368;SDS011;37459;51.416;5.502;2022-11-15T14:34:56;2.97;;;1.00;;
51368;SDS011;37459;51.416;5.502;2022-11-15T14:37:25;5.25;;;1.20;;
51368;SDS011;37459;51.416;5.502;2022-11-15T14:39:53;5.55;;;1.42;;
51368;SDS011;37459;51.416;5.502;2022-11-15T14:42:22;8.65;;;1.52;;
51368;SDS011;37459;51.416;5.502;2022-11-15T14:44:50;3.47;;;1.40;;
51368;SDS011;37459;51.416;5.502;2022-11-15T14:47:17;4.55;;;1.27;;
51368;SDS011;37459;51.416;5.502;2022-11-15T14:49:44;3.15;;;1.10;;
51368;SDS011;37459;51.416;5.502;2022-11-15T14:52:16;3.75;;;1.50;;
51368;SDS011;37459;51.416;5.502;2022-11-15T14:54:50;6.43;;;1.33;;
51368;SDS011;37459;51.416;5.502;2022-11-15T14:57:17;4.15;;;1.25;;
51368;SDS011;37459;51.416;5.502;2022-11-15T14:59:44;6.68;;;1.00;;
51368;SDS011;37459;51.416;5.502;2022-11-15T15:02:13;5.63;;;1.33;;
51368;SDS011;37459;51.416;5.502;2022-11-15T15:04:42;8.40;;;1.40;;
51368;SDS011;37459;51.416;5.502;2022-11-15T15:07:09;4.82;;;1.60;;
51368;SDS011;37459;51.416;5.502;2022-11-15T15:09:35;4.00;;;1.30;;
51368;SDS011;37459;51.416;5.502;2022-11-15T15:12:02;7.28;;;1.38;;
51368;SDS011;37459;51.416;5.502;2022-11-15T15:14:29;8.95;;;1.60;;